sensor_id;sensor_type;location;lat;lon;timestamp;temperature;humidity
59075;DHT22;44860;53.020;6.738;2022-07-04T00:00:22;13.90;99.90
59075;DHT22;44860;53.020;6.738;2022-07-04T00:02:48;13.90;99.90
59075;DHT22;44860;53.020;6.738;2022-07-04T00:05:14;13.90;99.90
59075;DHT22;44860;53.020;6.738;2022-07-04T00:07:45;13.90;99.90
59075;DHT22;44860;53.020;6.738;2022-07-04T00:10:13;13.90;99.90
59075;DHT22;44860;53.020;6.738;2022-07-04T00:12:41;13.80;99.90
59075;DHT22;44860;53.020;6.738;2022-07-04T00:15:07;13.80;99.90
59075;DHT22;44860;53.020;6.738;2022-07-04T00:17:34;13.80;99.90
59075;DHT22;44860;53.020;6.738;2022-07-04T00:19:59;13.70;99.90
59075;DHT22;44860;53.020;6.738;2022-07-04T00:22:25;13.70;99.90
59075;DHT22;44860;53.020;6.738;2022-07-04T00:24:51;13.70;99.90
59075;DHT22;44860;53.020;6.738;2022-07-04T00:27:17;13.60;99.90
59075;DHT22;44860;53.020;6.738;2022-07-04T00:29:42;13.60;99.90
59075;DHT22;44860;53.020;6.738;2022-07-04T00:32:08;13.60;99.90
59075;DHT22;44860;53.020;6.738;2022-07-04T00:34:34;13.50;99.90
59075;DHT22;44860;53.020;6.738;2022-07-04T00:37:00;13.50;99.90
59075;DHT22;44860;53.020;6.738;2022-07-04T00:39:26;13.50;99.90
59075;DHT22;44860;53.020;6.738;2022-07-04T00:41:52;13.50;99.90
59075;DHT22;44860;53.020;6.738;2022-07-04T00:44:18;13.50;99.90
59075;DHT22;44860;53.020;6.738;2022-07-04T00:46:45;13.40;99.90
59075;DHT22;44860;53.020;6.738;2022-07-04T00:49:11;13.40;99.90
59075;DHT22;44860;53.020;6.738;2022-07-04T00:51:38;13.40;99.90
59075;DHT22;44860;53.020;6.738;2022-07-04T00:54:05;13.40;99.90
59075;DHT22;44860;53.020;6.738;2022-07-04T00:56:30;13.40;99.90
59075;DHT22;44860;53.020;6.738;2022-07-04T00:58:57;13.30;99.90
59075;DHT22;44860;53.020;6.738;2022-07-04T01:01:24;13.30;99.90
59075;DHT22;44860;53.020;6.738;2022-07-04T01:03:50;13.30;99.90
59075;DHT22;44860;53.020;6.738;2022-07-04T01:06:16;13.30;99.90
59075;DHT22;44860;53.020;6.738;2022-07-04T01:08:44;13.20;99.90
59075;DHT22;44860;53.020;6.738;2022-07-04T01:11:10;13.20;99.90
59075;DHT22;44860;53.020;6.738;2022-07-04T01:13:36;13.20;99.90
59075;DHT22;44860;53.020;6.738;2022-07-04T01:16:03;13.20;99.90
59075;DHT22;44860;53.020;6.738;2022-07-04T01:18:30;13.20;99.90
59075;DHT22;44860;53.020;6.738;2022-07-04T01:20:56;13.20;99.90
59075;DHT22;44860;53.020;6.738;2022-07-04T01:23:22;13.20;99.90
59075;DHT22;44860;53.020;6.738;2022-07-04T01:25:47;13.20;99.90
59075;DHT22;44860;53.020;6.738;2022-07-04T01:28:17;13.10;99.90
59075;DHT22;44860;53.020;6.738;2022-07-04T01:30:43;13.10;99.90
59075;DHT22;44860;53.020;6.738;2022-07-04T01:33:09;13.00;99.90
59075;DHT22;44860;53.020;6.738;2022-07-04T01:35:34;13.00;99.90
59075;DHT22;44860;53.020;6.738;2022-07-04T01:38:00;13.00;99.90
59075;DHT22;44860;53.020;6.738;2022-07-04T01:40:26;13.00;99.90
59075;DHT22;44860;53.020;6.738;2022-07-04T01:42:52;13.00;99.90
59075;DHT22;44860;53.020;6.738;2022-07-04T01:45:18;12.90;99.90
59075;DHT22;44860;53.020;6.738;2022-07-04T01:47:44;12.90;99.90
59075;DHT22;44860;53.020;6.738;2022-07-04T01:50:10;12.90;99.90
59075;DHT22;44860;53.020;6.738;2022-07-04T01:52:40;12.80;99.90
59075;DHT22;44860;53.020;6.738;2022-07-04T01:55:07;12.80;99.90
59075;DHT22;44860;53.020;6.738;2022-07-04T01:57:33;12.80;99.90
59075;DHT22;44860;53.020;6.738;2022-07-04T01:59:58;12.70;99.90
59075;DHT22;44860;53.020;6.738;2022-07-04T02:02:43;12.70;99.90
59075;DHT22;44860;53.020;6.738;2022-07-04T02:05:09;12.70;99.90
59075;DHT22;44860;53.020;6.738;2022-07-04T02:07:35;12.70;99.90
59075;DHT22;44860;53.020;6.738;2022-07-04T02:10:00;12.60;99.90
59075;DHT22;44860;53.020;6.738;2022-07-04T02:12:26;12.60;99.90
59075;DHT22;44860;53.020;6.738;2022-07-04T02:15:10;12.60;99.90
59075;DHT22;44860;53.020;6.738;2022-07-04T02:17:36;12.60;99.90
59075;DHT22;44860;53.020;6.738;2022-07-04T02:20:03;12.60;99.90
59075;DHT22;44860;53.020;6.738;2022-07-04T02:22:30;12.60;99.90
59075;DHT22;44860;53.020;6.738;2022-07-04T02:24:56;12.60;99.90
59075;DHT22;44860;53.020;6.738;2022-07-04T02:27:22;12.60;99.90
59075;DHT22;44860;53.020;6.738;2022-07-04T02:29:47;12.60;99.90
59075;DHT22;44860;53.020;6.738;2022-07-04T02:32:13;12.60;99.90
59075;DHT22;44860;53.020;6.738;2022-07-04T02:34:39;12.60;99.90
59075;DHT22;44860;53.020;6.738;2022-07-04T02:37:04;12.60;99.90
59075;DHT22;44860;53.020;6.738;2022-07-04T02:39:30;12.60;99.90
59075;DHT22;44860;53.020;6.738;2022-07-04T02:41:56;12.60;99.90
59075;DHT22;44860;53.020;6.738;2022-07-04T02:44:21;12.60;99.90
59075;DHT22;44860;53.020;6.738;2022-07-04T02:46:47;12.60;99.90
59075;DHT22;44860;53.020;6.738;2022-07-04T02:49:13;12.70;99.90
59075;DHT22;44860;53.020;6.738;2022-07-04T02:51:38;12.70;99.90
59075;DHT22;44860;53.020;6.738;2022-07-04T02:54:04;12.70;99.90
59075;DHT22;44860;53.020;6.738;2022-07-04T02:56:30;12.70;99.90
59075;DHT22;44860;53.020;6.738;2022-07-04T02:58:55;12.70;99.90
59075;DHT22;44860;53.020;6.738;2022-07-04T03:01:21;12.70;99.90
59075;DHT22;44860;53.020;6.738;2022-07-04T03:03:47;12.70;99.90
59075;DHT22;44860;53.020;6.738;2022-07-04T03:06:13;12.70;99.90
59075;DHT22;44860;53.020;6.738;2022-07-04T03:08:39;12.70;99.90
59075;DHT22;44860;53.020;6.738;2022-07-04T03:11:05;12.70;99.90
59075;DHT22;44860;53.020;6.738;2022-07-04T03:13:31;12.70;99.90
59075;DHT22;44860;53.020;6.738;2022-07-04T03:15:57;12.70;99.90
59075;DHT22;44860;53.020;6.738;2022-07-04T03:18:23;12.70;99.90
59075;DHT22;44860;53.020;6.738;2022-07-04T03:20:49;12.70;99.90
59075;DHT22;44860;53.020;6.738;2022-07-04T03:23:15;12.70;99.90
59075;DHT22;44860;53.020;6.738;2022-07-04T03:25:41;12.70;99.90
59075;DHT22;44860;53.020;6.738;2022-07-04T03:28:07;12.70;99.90
59075;DHT22;44860;53.020;6.738;2022-07-04T03:30:33;12.70;99.90
59075;DHT22;44860;53.020;6.738;2022-07-04T03:32:58;12.70;99.90
59075;DHT22;44860;53.020;6.738;2022-07-04T03:35:25;12.70;99.90
59075;DHT22;44860;53.020;6.738;2022-07-04T03:37:50;12.60;99.90
59075;DHT22;44860;53.020;6.738;2022-07-04T03:40:17;12.70;99.90
59075;DHT22;44860;53.020;6.738;2022-07-04T03:42:43;12.60;99.90
59075;DHT22;44860;53.020;6.738;2022-07-04T03:45:09;12.70;99.90
59075;DHT22;44860;53.020;6.738;2022-07-04T03:47:35;12.70;99.90
59075;DHT22;44860;53.020;6.738;2022-07-04T03:50:01;12.70;99.90
59075;DHT22;44860;53.020;6.738;2022-07-04T03:52:26;12.70;99.90
59075;DHT22;44860;53.020;6.738;2022-07-04T03:54:53;12.70;99.90
59075;DHT22;44860;53.020;6.738;2022-07-04T03:57:18;12.70;99.90
59075;DHT22;44860;53.020;6.738;2022-07-04T03:59:44;12.80;99.90
59075;DHT22;44860;53.020;6.738;2022-07-04T04:02:10;12.80;99.90
59075;DHT22;44860;53.020;6.738;2022-07-04T04:04:35;12.80;99.90
59075;DHT22;44860;53.020;6.738;2022-07-04T04:07:20;12.80;99.90
59075;DHT22;44860;53.020;6.738;2022-07-04T04:09:45;12.80;99.90
59075;DHT22;44860;53.020;6.738;2022-07-04T04:12:11;12.80;99.90
59075;DHT22;44860;53.020;6.738;2022-07-04T04:14:36;12.80;99.90
59075;DHT22;44860;53.020;6.738;2022-07-04T04:17:02;12.90;99.90
59075;DHT22;44860;53.020;6.738;2022-07-04T04:19:28;12.90;99.90
59075;DHT22;44860;53.020;6.738;2022-07-04T04:21:54;12.90;99.90
59075;DHT22;44860;53.020;6.738;2022-07-04T04:24:19;12.90;99.90
59075;DHT22;44860;53.020;6.738;2022-07-04T04:26:45;12.90;99.90
59075;DHT22;44860;53.020;6.738;2022-07-04T04:29:11;12.90;99.90
59075;DHT22;44860;53.020;6.738;2022-07-04T04:31:36;13.00;99.90
59075;DHT22;44860;53.020;6.738;2022-07-04T04:34:02;13.00;99.90
59075;DHT22;44860;53.020;6.738;2022-07-04T04:36:28;13.00;99.90
59075;DHT22;44860;53.020;6.738;2022-07-04T04:38:53;13.10;99.90
59075;DHT22;44860;53.020;6.738;2022-07-04T04:41:19;13.10;99.90
59075;DHT22;44860;53.020;6.738;2022-07-04T04:43:45;13.10;99.90
59075;DHT22;44860;53.020;6.738;2022-07-04T04:46:11;13.20;99.90
59075;DHT22;44860;53.020;6.738;2022-07-04T04:48:36;13.20;99.90
59075;DHT22;44860;53.020;6.738;2022-07-04T04:51:02;13.30;99.90
59075;DHT22;44860;53.020;6.738;2022-07-04T04:53:27;13.30;99.90
59075;DHT22;44860;53.020;6.738;2022-07-04T04:55:54;13.30;99.90
59075;DHT22;44860;53.020;6.738;2022-07-04T04:58:21;13.40;99.90
59075;DHT22;44860;53.020;6.738;2022-07-04T05:00:47;13.40;99.90
59075;DHT22;44860;53.020;6.738;2022-07-04T05:03:18;13.50;99.90
59075;DHT22;44860;53.020;6.738;2022-07-04T05:05:44;13.60;99.90
59075;DHT22;44860;53.020;6.738;2022-07-04T05:08:11;13.60;99.90
59075;DHT22;44860;53.020;6.738;2022-07-04T05:10:38;13.70;99.90
59075;DHT22;44860;53.020;6.738;2022-07-04T05:13:05;13.80;99.90
59075;DHT22;44860;53.020;6.738;2022-07-04T05:15:31;13.80;99.90
59075;DHT22;44860;53.020;6.738;2022-07-04T05:17:57;13.80;99.90
59075;DHT22;44860;53.020;6.738;2022-07-04T05:20:22;13.90;99.90
59075;DHT22;44860;53.020;6.738;2022-07-04T05:22:48;13.90;99.90
59075;DHT22;44860;53.020;6.738;2022-07-04T05:25:14;13.90;99.90
59075;DHT22;44860;53.020;6.738;2022-07-04T05:27:39;14.00;99.90
59075;DHT22;44860;53.020;6.738;2022-07-04T05:30:06;14.00;99.90
59075;DHT22;44860;53.020;6.738;2022-07-04T05:32:32;14.10;99.90
59075;DHT22;44860;53.020;6.738;2022-07-04T05:34:58;14.20;99.90
59075;DHT22;44860;53.020;6.738;2022-07-04T05:37:24;14.20;99.90
59075;DHT22;44860;53.020;6.738;2022-07-04T05:39:49;14.20;99.90
59075;DHT22;44860;53.020;6.738;2022-07-04T05:42:15;14.30;99.90
59075;DHT22;44860;53.020;6.738;2022-07-04T05:44:41;14.40;99.90
59075;DHT22;44860;53.020;6.738;2022-07-04T05:47:07;14.50;99.90
59075;DHT22;44860;53.020;6.738;2022-07-04T05:49:33;14.50;99.90
59075;DHT22;44860;53.020;6.738;2022-07-04T05:51:59;14.60;99.90
59075;DHT22;44860;53.020;6.738;2022-07-04T05:54:24;14.70;99.90
59075;DHT22;44860;53.020;6.738;2022-07-04T05:56:50;14.70;99.90
59075;DHT22;44860;53.020;6.738;2022-07-04T05:59:16;14.80;99.90
59075;DHT22;44860;53.020;6.738;2022-07-04T06:01:42;14.90;99.90
59075;DHT22;44860;53.020;6.738;2022-07-04T06:04:08;15.00;99.90
59075;DHT22;44860;53.020;6.738;2022-07-04T06:06:34;15.10;99.90
59075;DHT22;44860;53.020;6.738;2022-07-04T06:09:01;15.20;99.90
59075;DHT22;44860;53.020;6.738;2022-07-04T06:11:27;15.30;99.90
59075;DHT22;44860;53.020;6.738;2022-07-04T06:13:52;15.30;99.90
59075;DHT22;44860;53.020;6.738;2022-07-04T06:16:18;15.40;99.90
59075;DHT22;44860;53.020;6.738;2022-07-04T06:18:44;15.50;99.90
59075;DHT22;44860;53.020;6.738;2022-07-04T06:21:10;15.50;99.90
59075;DHT22;44860;53.020;6.738;2022-07-04T06:23:36;15.60;99.90
59075;DHT22;44860;53.020;6.738;2022-07-04T06:26:02;15.70;99.90
59075;DHT22;44860;53.020;6.738;2022-07-04T06:28:28;15.70;99.90
59075;DHT22;44860;53.020;6.738;2022-07-04T06:30:55;15.80;99.90
59075;DHT22;44860;53.020;6.738;2022-07-04T06:33:21;15.90;99.90
59075;DHT22;44860;53.020;6.738;2022-07-04T06:35:46;16.00;99.90
59075;DHT22;44860;53.020;6.738;2022-07-04T06:40:49;16.10;99.90
59075;DHT22;44860;53.020;6.738;2022-07-04T06:43:16;16.20;99.90
59075;DHT22;44860;53.020;6.738;2022-07-04T06:45:42;16.20;99.90
59075;DHT22;44860;53.020;6.738;2022-07-04T06:48:08;16.30;99.90
59075;DHT22;44860;53.020;6.738;2022-07-04T06:50:34;16.30;99.90
59075;DHT22;44860;53.020;6.738;2022-07-04T06:53:03;16.40;99.90
59075;DHT22;44860;53.020;6.738;2022-07-04T06:55:30;16.50;99.90
59075;DHT22;44860;53.020;6.738;2022-07-04T06:57:56;16.60;99.90
59075;DHT22;44860;53.020;6.738;2022-07-04T07:00:22;16.60;99.90
59075;DHT22;44860;53.020;6.738;2022-07-04T07:02:47;16.70;99.90
59075;DHT22;44860;53.020;6.738;2022-07-04T07:05:13;16.70;99.90
59075;DHT22;44860;53.020;6.738;2022-07-04T07:07:38;16.80;99.90
59075;DHT22;44860;53.020;6.738;2022-07-04T07:10:04;16.80;99.90
59075;DHT22;44860;53.020;6.738;2022-07-04T07:12:32;16.90;99.90
59075;DHT22;44860;53.020;6.738;2022-07-04T07:14:58;17.00;99.90
59075;DHT22;44860;53.020;6.738;2022-07-04T07:17:23;17.00;99.90
59075;DHT22;44860;53.020;6.738;2022-07-04T07:19:49;17.10;99.90
59075;DHT22;44860;53.020;6.738;2022-07-04T07:22:15;17.20;99.90
59075;DHT22;44860;53.020;6.738;2022-07-04T07:24:40;17.30;99.90
59075;DHT22;44860;53.020;6.738;2022-07-04T07:27:07;17.30;99.90
59075;DHT22;44860;53.020;6.738;2022-07-04T07:29:33;17.40;99.90
59075;DHT22;44860;53.020;6.738;2022-07-04T07:31:59;17.50;99.90
59075;DHT22;44860;53.020;6.738;2022-07-04T07:34:25;17.60;99.90
59075;DHT22;44860;53.020;6.738;2022-07-04T07:36:51;17.60;99.90
59075;DHT22;44860;53.020;6.738;2022-07-04T07:39:16;17.70;99.90
59075;DHT22;44860;53.020;6.738;2022-07-04T07:41:42;17.80;99.90
59075;DHT22;44860;53.020;6.738;2022-07-04T07:44:08;17.90;99.90
59075;DHT22;44860;53.020;6.738;2022-07-04T07:46:37;18.00;99.90
59075;DHT22;44860;53.020;6.738;2022-07-04T07:49:02;18.00;99.90
59075;DHT22;44860;53.020;6.738;2022-07-04T07:51:28;18.00;99.90
59075;DHT22;44860;53.020;6.738;2022-07-04T07:53:54;18.00;99.90
59075;DHT22;44860;53.020;6.738;2022-07-04T07:56:20;18.00;99.90
59075;DHT22;44860;53.020;6.738;2022-07-04T07:58:45;18.10;99.90
59075;DHT22;44860;53.020;6.738;2022-07-04T08:01:11;18.20;99.90
59075;DHT22;44860;53.020;6.738;2022-07-04T08:03:37;18.20;99.90
59075;DHT22;44860;53.020;6.738;2022-07-04T08:06:21;18.20;99.90
59075;DHT22;44860;53.020;6.738;2022-07-04T08:08:47;18.20;99.90
59075;DHT22;44860;53.020;6.738;2022-07-04T08:11:13;18.30;99.90
59075;DHT22;44860;53.020;6.738;2022-07-04T08:13:39;18.40;99.90
59075;DHT22;44860;53.020;6.738;2022-07-04T08:16:06;18.50;99.90
59075;DHT22;44860;53.020;6.738;2022-07-04T08:18:32;18.60;99.90
59075;DHT22;44860;53.020;6.738;2022-07-04T08:20:59;18.70;99.90
59075;DHT22;44860;53.020;6.738;2022-07-04T08:23:25;18.80;99.90
59075;DHT22;44860;53.020;6.738;2022-07-04T08:25:50;18.70;99.90
59075;DHT22;44860;53.020;6.738;2022-07-04T08:28:16;18.80;99.90
59075;DHT22;44860;53.020;6.738;2022-07-04T08:30:42;18.90;99.90
59075;DHT22;44860;53.020;6.738;2022-07-04T08:33:07;18.90;99.90
59075;DHT22;44860;53.020;6.738;2022-07-04T08:35:33;19.00;99.90
59075;DHT22;44860;53.020;6.738;2022-07-04T08:37:59;19.10;99.90
59075;DHT22;44860;53.020;6.738;2022-07-04T08:40:30;19.10;99.90
59075;DHT22;44860;53.020;6.738;2022-07-04T08:42:56;19.20;99.90
59075;DHT22;44860;53.020;6.738;2022-07-04T08:45:29;19.20;99.90
59075;DHT22;44860;53.020;6.738;2022-07-04T08:48:06;19.30;99.90
59075;DHT22;44860;53.020;6.738;2022-07-04T08:50:37;19.30;99.90
59075;DHT22;44860;53.020;6.738;2022-07-04T08:53:10;19.40;99.90
59075;DHT22;44860;53.020;6.738;2022-07-04T08:55:38;19.60;99.90
59075;DHT22;44860;53.020;6.738;2022-07-04T08:58:23;19.60;99.90
59075;DHT22;44860;53.020;6.738;2022-07-04T09:00:58;19.60;99.90
59075;DHT22;44860;53.020;6.738;2022-07-04T09:03:25;19.70;99.90
59075;DHT22;44860;53.020;6.738;2022-07-04T09:05:51;19.80;99.90
59075;DHT22;44860;53.020;6.738;2022-07-04T09:08:17;19.80;99.90
59075;DHT22;44860;53.020;6.738;2022-07-04T09:10:43;19.80;99.90
59075;DHT22;44860;53.020;6.738;2022-07-04T09:13:11;19.80;99.90
59075;DHT22;44860;53.020;6.738;2022-07-04T09:15:40;19.80;99.90
59075;DHT22;44860;53.020;6.738;2022-07-04T09:18:06;19.80;99.90
59075;DHT22;44860;53.020;6.738;2022-07-04T09:20:33;19.70;99.90
59075;DHT22;44860;53.020;6.738;2022-07-04T09:22:59;19.60;99.90
59075;DHT22;44860;53.020;6.738;2022-07-04T09:25:25;19.60;99.90
59075;DHT22;44860;53.020;6.738;2022-07-04T09:27:53;19.50;99.90
59075;DHT22;44860;53.020;6.738;2022-07-04T09:30:23;19.50;99.90
59075;DHT22;44860;53.020;6.738;2022-07-04T09:32:53;19.50;99.90
59075;DHT22;44860;53.020;6.738;2022-07-04T09:35:26;19.50;99.90
59075;DHT22;44860;53.020;6.738;2022-07-04T09:37:54;19.50;99.90
59075;DHT22;44860;53.020;6.738;2022-07-04T09:42:59;19.60;99.90
59075;DHT22;44860;53.020;6.738;2022-07-04T09:45:27;19.80;99.90
59075;DHT22;44860;53.020;6.738;2022-07-04T09:47:56;19.80;99.90
59075;DHT22;44860;53.020;6.738;2022-07-04T09:50:24;19.90;99.90
59075;DHT22;44860;53.020;6.738;2022-07-04T09:52:59;20.00;99.90
59075;DHT22;44860;53.020;6.738;2022-07-04T09:57:51;20.20;99.90
59075;DHT22;44860;53.020;6.738;2022-07-04T10:02:44;20.20;98.10
59075;DHT22;44860;53.020;6.738;2022-07-04T10:05:10;20.30;97.60
59075;DHT22;44860;53.020;6.738;2022-07-04T10:07:37;20.40;94.80
59075;DHT22;44860;53.020;6.738;2022-07-04T10:10:47;20.50;92.60
59075;DHT22;44860;53.020;6.738;2022-07-04T10:13:12;20.60;91.60
59075;DHT22;44860;53.020;6.738;2022-07-04T10:15:40;20.60;91.00
59075;DHT22;44860;53.020;6.738;2022-07-04T10:18:07;20.80;90.30
59075;DHT22;44860;53.020;6.738;2022-07-04T10:20:34;20.80;87.90
59075;DHT22;44860;53.020;6.738;2022-07-04T10:23:00;20.90;84.50
59075;DHT22;44860;53.020;6.738;2022-07-04T10:25:26;20.90;80.40
59075;DHT22;44860;53.020;6.738;2022-07-04T10:27:52;20.90;80.40
59075;DHT22;44860;53.020;6.738;2022-07-04T10:30:26;21.00;79.20
59075;DHT22;44860;53.020;6.738;2022-07-04T10:32:54;21.10;76.00
59075;DHT22;44860;53.020;6.738;2022-07-04T10:35:48;21.20;76.00
59075;DHT22;44860;53.020;6.738;2022-07-04T10:38:15;21.30;73.10
59075;DHT22;44860;53.020;6.738;2022-07-04T10:48:55;21.20;75.70
59075;DHT22;44860;53.020;6.738;2022-07-04T10:51:46;21.20;78.50
59075;DHT22;44860;53.020;6.738;2022-07-04T10:56:57;21.20;71.90
59075;DHT22;44860;53.020;6.738;2022-07-04T10:59:28;21.30;72.60
59075;DHT22;44860;53.020;6.738;2022-07-04T11:17:54;21.20;78.60
59075;DHT22;44860;53.020;6.738;2022-07-04T11:20:23;21.30;77.70
59075;DHT22;44860;53.020;6.738;2022-07-04T11:22:49;21.20;75.80
59075;DHT22;44860;53.020;6.738;2022-07-04T11:25:15;21.20;77.80
59075;DHT22;44860;53.020;6.738;2022-07-04T11:27:41;21.20;80.10
59075;DHT22;44860;53.020;6.738;2022-07-04T11:30:08;21.10;78.70
59075;DHT22;44860;53.020;6.738;2022-07-04T11:32:35;21.10;67.20
59075;DHT22;44860;53.020;6.738;2022-07-04T11:35:04;21.10;75.40
59075;DHT22;44860;53.020;6.738;2022-07-04T11:37:31;21.30;80.30
59075;DHT22;44860;53.020;6.738;2022-07-04T11:39:57;21.50;83.10
59075;DHT22;44860;53.020;6.738;2022-07-04T11:43:04;21.60;80.80
59075;DHT22;44860;53.020;6.738;2022-07-04T11:45:48;21.70;75.00
59075;DHT22;44860;53.020;6.738;2022-07-04T11:48:27;21.60;75.70
59075;DHT22;44860;53.020;6.738;2022-07-04T11:50:53;21.70;78.70
59075;DHT22;44860;53.020;6.738;2022-07-04T11:53:19;21.70;73.20
59075;DHT22;44860;53.020;6.738;2022-07-04T11:55:58;21.80;66.70
59075;DHT22;44860;53.020;6.738;2022-07-04T11:58:39;21.90;61.30
59075;DHT22;44860;53.020;6.738;2022-07-04T12:01:05;22.00;57.10
59075;DHT22;44860;53.020;6.738;2022-07-04T12:03:33;22.00;60.00
59075;DHT22;44860;53.020;6.738;2022-07-04T12:06:02;22.10;59.50
59075;DHT22;44860;53.020;6.738;2022-07-04T12:08:28;22.20;58.20
59075;DHT22;44860;53.020;6.738;2022-07-04T12:10:54;22.20;57.40
59075;DHT22;44860;53.020;6.738;2022-07-04T12:13:20;22.30;56.00
59075;DHT22;44860;53.020;6.738;2022-07-04T12:15:48;22.40;58.70
59075;DHT22;44860;53.020;6.738;2022-07-04T12:18:29;22.40;57.40
59075;DHT22;44860;53.020;6.738;2022-07-04T12:21:11;22.50;60.10
59075;DHT22;44860;53.020;6.738;2022-07-04T12:23:38;22.60;55.10
59075;DHT22;44860;53.020;6.738;2022-07-04T12:26:05;22.60;54.00
59075;DHT22;44860;53.020;6.738;2022-07-04T12:28:36;22.60;54.00
59075;DHT22;44860;53.020;6.738;2022-07-04T12:31:02;22.60;50.20
59075;DHT22;44860;53.020;6.738;2022-07-04T12:33:29;22.40;51.40
59075;DHT22;44860;53.020;6.738;2022-07-04T12:36:02;22.40;53.70
59075;DHT22;44860;53.020;6.738;2022-07-04T12:41:00;22.40;55.00
59075;DHT22;44860;53.020;6.738;2022-07-04T12:43:47;22.50;55.20
59075;DHT22;44860;53.020;6.738;2022-07-04T12:46:31;22.40;50.70
59075;DHT22;44860;53.020;6.738;2022-07-04T12:48:58;22.50;54.30
59075;DHT22;44860;53.020;6.738;2022-07-04T12:51:30;22.60;52.30
59075;DHT22;44860;53.020;6.738;2022-07-04T12:53:57;22.60;50.60
59075;DHT22;44860;53.020;6.738;2022-07-04T12:58:59;22.80;52.00
59075;DHT22;44860;53.020;6.738;2022-07-04T13:01:25;22.70;50.90
59075;DHT22;44860;53.020;6.738;2022-07-04T13:03:51;22.70;48.90
59075;DHT22;44860;53.020;6.738;2022-07-04T13:06:17;22.60;48.90
59075;DHT22;44860;53.020;6.738;2022-07-04T13:08:44;22.50;47.50
59075;DHT22;44860;53.020;6.738;2022-07-04T13:11:09;22.50;48.40
59075;DHT22;44860;53.020;6.738;2022-07-04T13:13:54;22.40;46.60
59075;DHT22;44860;53.020;6.738;2022-07-04T13:16:19;22.40;48.70
59075;DHT22;44860;53.020;6.738;2022-07-04T13:18:45;22.50;48.30
59075;DHT22;44860;53.020;6.738;2022-07-04T13:21:10;22.60;48.20
59075;DHT22;44860;53.020;6.738;2022-07-04T13:23:36;22.70;46.80
59075;DHT22;44860;53.020;6.738;2022-07-04T13:26:05;22.70;44.70
59075;DHT22;44860;53.020;6.738;2022-07-04T13:28:30;22.80;45.20
59075;DHT22;44860;53.020;6.738;2022-07-04T13:30:56;22.80;44.90
59075;DHT22;44860;53.020;6.738;2022-07-04T13:33:22;22.70;42.50
59075;DHT22;44860;53.020;6.738;2022-07-04T13:35:47;22.70;42.20
59075;DHT22;44860;53.020;6.738;2022-07-04T13:38:13;22.80;43.40
59075;DHT22;44860;53.020;6.738;2022-07-04T13:40:42;22.80;41.50
59075;DHT22;44860;53.020;6.738;2022-07-04T13:43:09;22.80;41.40
59075;DHT22;44860;53.020;6.738;2022-07-04T13:45:38;22.90;42.00
59075;DHT22;44860;53.020;6.738;2022-07-04T13:48:06;22.80;39.20
59075;DHT22;44860;53.020;6.738;2022-07-04T13:50:32;22.80;40.30
59075;DHT22;44860;53.020;6.738;2022-07-04T13:53:01;22.80;42.20
59075;DHT22;44860;53.020;6.738;2022-07-04T13:55:27;22.80;40.60
59075;DHT22;44860;53.020;6.738;2022-07-04T13:57:52;22.90;40.40
59075;DHT22;44860;53.020;6.738;2022-07-04T14:00:18;23.00;41.70
59075;DHT22;44860;53.020;6.738;2022-07-04T14:02:43;23.10;41.10
59075;DHT22;44860;53.020;6.738;2022-07-04T14:05:09;23.10;41.40
59075;DHT22;44860;53.020;6.738;2022-07-04T14:07:36;23.10;41.10
59075;DHT22;44860;53.020;6.738;2022-07-04T14:10:02;23.00;40.20
59075;DHT22;44860;53.020;6.738;2022-07-04T14:12:28;22.90;41.00
59075;DHT22;44860;53.020;6.738;2022-07-04T14:14:53;23.00;41.60
59075;DHT22;44860;53.020;6.738;2022-07-04T14:17:19;23.10;40.00
59075;DHT22;44860;53.020;6.738;2022-07-04T14:19:45;23.20;40.80
59075;DHT22;44860;53.020;6.738;2022-07-04T14:22:10;23.30;41.60
59075;DHT22;44860;53.020;6.738;2022-07-04T14:24:36;23.30;40.50
59075;DHT22;44860;53.020;6.738;2022-07-04T14:27:02;23.20;38.90
59075;DHT22;44860;53.020;6.738;2022-07-04T14:29:27;23.10;39.70
59075;DHT22;44860;53.020;6.738;2022-07-04T14:31:53;23.10;40.70
59075;DHT22;44860;53.020;6.738;2022-07-04T14:34:19;22.80;42.00
59075;DHT22;44860;53.020;6.738;2022-07-04T14:36:45;22.80;42.90
59075;DHT22;44860;53.020;6.738;2022-07-04T14:39:10;22.90;44.20
59075;DHT22;44860;53.020;6.738;2022-07-04T14:41:36;22.90;43.20
59075;DHT22;44860;53.020;6.738;2022-07-04T14:44:02;22.80;43.00
59075;DHT22;44860;53.020;6.738;2022-07-04T14:46:28;22.70;43.70
59075;DHT22;44860;53.020;6.738;2022-07-04T14:48:56;22.60;44.30
59075;DHT22;44860;53.020;6.738;2022-07-04T14:51:22;22.50;45.40
59075;DHT22;44860;53.020;6.738;2022-07-04T14:53:48;22.50;44.50
59075;DHT22;44860;53.020;6.738;2022-07-04T14:56:13;22.50;45.20
59075;DHT22;44860;53.020;6.738;2022-07-04T14:58:39;22.40;44.20
59075;DHT22;44860;53.020;6.738;2022-07-04T15:01:05;22.40;44.60
59075;DHT22;44860;53.020;6.738;2022-07-04T15:03:30;22.40;45.00
59075;DHT22;44860;53.020;6.738;2022-07-04T15:05:56;22.40;46.10
59075;DHT22;44860;53.020;6.738;2022-07-04T15:08:21;22.60;44.40
59075;DHT22;44860;53.020;6.738;2022-07-04T15:10:47;22.50;43.60
59075;DHT22;44860;53.020;6.738;2022-07-04T15:13:13;22.60;43.10
59075;DHT22;44860;53.020;6.738;2022-07-04T15:15:39;22.60;43.70
59075;DHT22;44860;53.020;6.738;2022-07-04T15:18:05;22.60;43.40
59075;DHT22;44860;53.020;6.738;2022-07-04T15:20:31;22.70;44.40
59075;DHT22;44860;53.020;6.738;2022-07-04T15:23:15;22.60;42.60
59075;DHT22;44860;53.020;6.738;2022-07-04T15:25:59;22.50;42.80
59075;DHT22;44860;53.020;6.738;2022-07-04T15:28:24;22.50;44.20
59075;DHT22;44860;53.020;6.738;2022-07-04T15:30:50;22.50;44.50
59075;DHT22;44860;53.020;6.738;2022-07-04T15:33:16;22.50;44.50
59075;DHT22;44860;53.020;6.738;2022-07-04T15:35:43;22.50;45.60
59075;DHT22;44860;53.020;6.738;2022-07-04T15:38:09;22.50;46.20
59075;DHT22;44860;53.020;6.738;2022-07-04T15:40:36;22.40;45.20
59075;DHT22;44860;53.020;6.738;2022-07-04T15:43:02;22.40;45.50
59075;DHT22;44860;53.020;6.738;2022-07-04T15:45:28;22.30;46.10
59075;DHT22;44860;53.020;6.738;2022-07-04T15:47:54;22.10;45.70
59075;DHT22;44860;53.020;6.738;2022-07-04T15:50:19;22.00;46.50
59075;DHT22;44860;53.020;6.738;2022-07-04T15:52:45;22.00;46.80
59075;DHT22;44860;53.020;6.738;2022-07-04T15:55:11;22.00;48.90
59075;DHT22;44860;53.020;6.738;2022-07-04T15:57:37;22.00;48.60
59075;DHT22;44860;53.020;6.738;2022-07-04T16:00:06;22.00;47.40
59075;DHT22;44860;53.020;6.738;2022-07-04T16:02:31;22.00;47.70
59075;DHT22;44860;53.020;6.738;2022-07-04T16:04:57;22.00;47.90
59075;DHT22;44860;53.020;6.738;2022-07-04T16:07:23;22.00;46.90
59075;DHT22;44860;53.020;6.738;2022-07-04T16:09:48;21.90;46.70
59075;DHT22;44860;53.020;6.738;2022-07-04T16:12:14;21.80;47.60